createdAt,value
2022-07-29T00:02:07.270Z,92.20
2022-07-29T00:04:56.177Z,92.20
2022-07-29T00:07:44.722Z,92.20
2022-07-29T00:10:34.919Z,92.20
2022-07-29T00:13:32.544Z,92.20
2022-07-29T00:16:22.798Z,92.20
2022-07-29T00:19:11.231Z,92.30
2022-07-29T00:22:01.019Z,92.20
2022-07-29T00:24:50.341Z,92.20
2022-07-29T00:27:38.831Z,92.20
2022-07-29T00:30:27.017Z,92.20
2022-07-29T00:33:17.225Z,92.20
2022-07-29T00:36:05.491Z,92.20
2022-07-29T00:38:54.296Z,92.20
2022-07-29T00:41:42.832Z,92.20
2022-07-29T00:44:31.350Z,92.20
2022-07-29T00:47:19.694Z,92.20
2022-07-29T00:50:11.621Z,92.20
2022-07-29T00:53:01.103Z,92.20
2022-07-29T00:55:50.000Z,92.40
2022-07-29T00:58:42.310Z,92.20
2022-07-29T01:01:30.693Z,92.10
2022-07-29T01:04:19.236Z,92.20
2022-07-29T01:07:10.148Z,92.20
2022-07-29T01:10:00.404Z,92.20
2022-07-29T01:12:51.654Z,92.20
2022-07-29T01:15:48.966Z,92.20
2022-07-29T01:18:43.743Z,92.20
2022-07-29T01:21:55.138Z,92.20
2022-07-29T01:24:56.756Z,92.20
2022-07-29T01:27:57.551Z,92.20
2022-07-29T01:30:49.629Z,92.20
2022-07-29T01:33:51.602Z,92.20
2022-07-29T01:36:46.204Z,92.20
2022-07-29T01:39:37.266Z,92.20
2022-07-29T01:42:32.389Z,92.20
2022-07-29T01:45:25.061Z,92.20
2022-07-29T01:48:18.982Z,92.20
2022-07-29T01:51:12.840Z,92.20
2022-07-29T01:54:07.081Z,92.20
2022-07-29T01:56:58.663Z,92.20
2022-07-29T01:59:49.767Z,92.20
2022-07-29T02:02:41.375Z,92.20
2022-07-29T02:05:33.314Z,92.20
2022-07-29T02:08:23.844Z,92.20
2022-07-29T02:11:12.893Z,92.20
2022-07-29T02:14:03.872Z,92.20
2022-07-29T02:16:55.420Z,92.20
2022-07-29T02:19:45.170Z,92.20
2022-07-29T02:22:37.990Z,92.20
2022-07-29T02:25:36.811Z,92.20
2022-07-29T02:28:28.716Z,92.20
2022-07-29T02:31:21.145Z,92.30
2022-07-29T02:34:12.046Z,92.30
2022-07-29T02:37:02.083Z,92.30
2022-07-29T02:39:56.215Z,92.30
2022-07-29T02:42:47.486Z,92.30
2022-07-29T02:45:36.370Z,92.30
2022-07-29T02:48:33.645Z,92.30
2022-07-29T02:51:43.708Z,92.30
2022-07-29T02:54:41.086Z,92.30
2022-07-29T02:57:54.381Z,92.30
2022-07-29T03:00:48.199Z,92.30
2022-07-29T03:03:39.910Z,92.30
2022-07-29T03:06:37.962Z,92.30
2022-07-29T03:09:29.670Z,92.30
2022-07-29T03:12:18.315Z,92.40
2022-07-29T03:15:10.138Z,92.40
2022-07-29T03:18:00.493Z,92.40
2022-07-29T03:20:49.246Z,92.40
2022-07-29T03:23:38.008Z,92.60
2022-07-29T03:26:26.605Z,92.40
2022-07-29T03:29:15.595Z,92.40
2022-07-29T03:32:08.606Z,92.40
2022-07-29T03:34:57.319Z,92.40
2022-07-29T03:37:45.857Z,92.40
2022-07-29T03:40:40.047Z,92.40
2022-07-29T03:43:32.511Z,92.40
2022-07-29T03:46:24.817Z,92.40
2022-07-29T03:49:17.218Z,92.40
2022-07-29T03:52:06.872Z,92.40
2022-07-29T03:54:55.717Z,92.30
2022-07-29T03:57:44.882Z,92.30
2022-07-29T04:00:35.406Z,92.30
2022-07-29T04:03:24.823Z,92.30
2022-07-29T04:06:15.351Z,92.30
2022-07-29T04:09:03.718Z,92.30
2022-07-29T04:12:01.510Z,92.40
2022-07-29T04:14:52.303Z,92.40
2022-07-29T04:17:40.841Z,92.50
2022-07-29T04:20:29.901Z,92.60
2022-07-29T04:23:19.651Z,92.60
2022-07-29T04:26:10.679Z,92.60
2022-07-29T04:28:58.869Z,92.60
2022-07-29T04:31:48.015Z,92.60
2022-07-29T04:34:37.190Z,92.50
2022-07-29T04:37:25.658Z,92.60
2022-07-29T04:40:16.261Z,92.50
2022-07-29T04:43:05.798Z,92.50
2022-07-29T04:45:54.258Z,92.60
2022-07-29T04:48:42.514Z,92.60
2022-07-29T04:51:31.020Z,92.60
2022-07-29T04:54:19.845Z,92.50
2022-07-29T04:57:09.681Z,92.60
2022-07-29T04:59:58.587Z,92.60
2022-07-29T05:02:47.015Z,92.60
2022-07-29T05:05:35.981Z,92.60
2022-07-29T05:08:24.532Z,92.60
2022-07-29T05:11:16.948Z,92.60
2022-07-29T05:14:09.337Z,92.60
2022-07-29T05:16:58.185Z,92.60
2022-07-29T05:19:46.660Z,92.70
2022-07-29T05:22:35.123Z,92.80
2022-07-29T05:25:23.808Z,92.80
2022-07-29T05:28:29.201Z,92.90
2022-07-29T05:31:19.098Z,92.90
2022-07-29T05:34:07.405Z,92.90
2022-07-29T05:36:55.932Z,92.90
2022-07-29T05:39:48.749Z,92.90
2022-07-29T05:42:39.502Z,92.90
2022-07-29T05:45:28.500Z,92.90
2022-07-29T05:48:18.517Z,92.90
2022-07-29T05:51:07.303Z,93.00
2022-07-29T05:53:55.560Z,93.00
2022-07-29T05:56:44.191Z,93.00
2022-07-29T05:59:32.843Z,93.00
2022-07-29T06:02:21.452Z,93.00
2022-07-29T06:05:16.312Z,93.00
2022-07-29T06:08:06.762Z,93.00
2022-07-29T06:10:55.497Z,93.00
2022-07-29T06:13:43.740Z,93.00
2022-07-29T06:16:32.286Z,93.00
2022-07-29T06:19:21.334Z,93.00
2022-07-29T06:22:11.244Z,93.00
2022-07-29T06:25:00.085Z,93.00
2022-07-29T06:27:48.345Z,93.00
2022-07-29T06:30:37.145Z,93.00
2022-07-29T06:33:25.648Z,93.00
2022-07-29T06:36:14.557Z,93.00
2022-07-29T06:39:06.000Z,93.00
2022-07-29T06:41:55.062Z,93.00
2022-07-29T06:44:46.693Z,93.00
2022-07-29T06:47:35.238Z,93.00
2022-07-29T06:50:23.588Z,93.10
2022-07-29T06:53:13.382Z,93.10
2022-07-29T06:56:04.585Z,93.10
2022-07-29T06:58:53.529Z,93.10
2022-07-29T07:01:44.049Z,93.10
2022-07-29T07:04:33.045Z,93.00
2022-07-29T07:07:21.089Z,93.00
2022-07-29T07:10:10.719Z,93.00
2022-07-29T07:13:00.384Z,93.10
2022-07-29T07:15:49.918Z,93.30
2022-07-29T07:18:38.606Z,93.10
2022-07-29T07:21:26.821Z,93.10
2022-07-29T07:24:18.981Z,93.10
2022-07-29T07:27:07.886Z,93.10
2022-07-29T07:29:57.972Z,93.10
2022-07-29T07:32:46.571Z,93.10
2022-07-29T07:35:35.347Z,93.10
2022-07-29T07:38:24.078Z,93.10
2022-07-29T07:41:12.840Z,93.10
2022-07-29T07:44:01.801Z,93.10
2022-07-29T07:46:51.700Z,93.10
2022-07-29T07:49:40.831Z,93.10
2022-07-29T07:52:30.457Z,93.10
2022-07-29T07:55:19.576Z,93.10
2022-07-29T07:58:07.932Z,93.10
2022-07-29T08:00:56.176Z,93.00
2022-07-29T08:03:46.205Z,93.00
2022-07-29T08:06:35.920Z,93.10
2022-07-29T08:09:29.646Z,93.00
2022-07-29T08:12:18.529Z,93.00
2022-07-29T08:15:08.947Z,93.00
2022-07-29T08:17:57.320Z,93.00
2022-07-29T08:20:47.120Z,93.00
2022-07-29T08:23:46.231Z,93.00
2022-07-29T08:26:36.925Z,93.10
2022-07-29T08:29:25.352Z,93.00
2022-07-29T08:32:26.180Z,93.10
2022-07-29T08:35:22.572Z,93.10
2022-07-29T08:38:12.433Z,93.10
2022-07-29T08:41:02.675Z,93.10
2022-07-29T08:43:52.243Z,93.00
2022-07-29T08:46:41.118Z,93.00
2022-07-29T08:49:29.426Z,93.00
2022-07-29T08:52:19.262Z,93.00
2022-07-29T08:55:10.632Z,93.00
2022-07-29T08:57:59.725Z,93.00
2022-07-29T09:00:52.677Z,93.00
2022-07-29T09:03:42.766Z,92.90
2022-07-29T09:06:34.739Z,92.90
2022-07-29T09:09:23.837Z,92.90
2022-07-29T09:12:14.174Z,92.90
2022-07-29T09:15:19.661Z,92.90
2022-07-29T09:18:08.601Z,92.90
2022-07-29T09:21:28.474Z,92.90
2022-07-29T09:24:17.042Z,92.80
2022-07-29T09:27:13.447Z,92.90
2022-07-29T09:30:02.898Z,92.80
2022-07-29T09:32:59.391Z,92.80
2022-07-29T09:35:57.162Z,92.80
2022-07-29T09:38:58.847Z,92.80
2022-07-29T09:41:49.419Z,92.80
2022-07-29T09:44:47.021Z,92.70
2022-07-29T09:47:46.168Z,92.70
2022-07-29T09:50:39.620Z,92.70
2022-07-29T09:53:35.424Z,92.70
2022-07-29T09:56:40.795Z,92.70
2022-07-29T09:59:29.445Z,92.70
2022-07-29T10:02:23.754Z,92.70
2022-07-29T10:05:20.878Z,92.70
2022-07-29T10:08:09.958Z,92.70
2022-07-29T10:11:12.348Z,92.70
2022-07-29T10:14:01.355Z,92.70
2022-07-29T10:16:49.913Z,92.70
2022-07-29T10:19:40.840Z,92.80
2022-07-29T10:22:52.042Z,92.80
2022-07-29T10:25:38.013Z,92.80
2022-07-29T10:28:26.768Z,92.80
2022-07-29T10:31:26.161Z,92.80
2022-07-29T10:34:24.983Z,92.80
2022-07-29T10:37:24.776Z,92.80
2022-07-29T10:40:41.224Z,92.80
2022-07-29T10:43:33.854Z,92.80
2022-07-29T10:46:22.808Z,92.80
2022-07-29T10:49:16.582Z,92.80
2022-07-29T10:52:08.521Z,92.80
2022-07-29T10:55:01.397Z,92.80
2022-07-29T10:58:13.884Z,92.80
2022-07-29T11:01:37.071Z,92.80
2022-07-29T11:05:04.552Z,92.80
2022-07-29T11:08:26.277Z,92.80
2022-07-29T11:11:44.154Z,92.80
2022-07-29T11:15:03.693Z,92.80
2022-07-29T11:18:15.070Z,92.80
2022-07-29T11:21:06.102Z,92.80
2022-07-29T11:24:14.815Z,92.80
2022-07-29T11:27:17.918Z,92.80
2022-07-29T11:30:10.497Z,92.80
2022-07-29T11:32:59.732Z,92.80
2022-07-29T11:36:16.906Z,92.80
2022-07-29T11:42:52.485Z,92.80
2022-07-29T11:45:51.238Z,92.90
2022-07-29T11:48:45.070Z,92.80
2022-07-29T11:51:34.900Z,92.90
2022-07-29T11:54:27.890Z,92.90
2022-07-29T11:57:18.334Z,92.90
2022-07-29T12:00:12.156Z,92.90
2022-07-29T12:03:05.135Z,92.90
2022-07-29T12:05:54.390Z,92.90
2022-07-29T12:08:46.044Z,92.90
2022-07-29T12:11:36.085Z,92.90
2022-07-29T12:14:28.649Z,92.80
2022-07-29T12:17:30.449Z,92.80
2022-07-29T12:20:27.340Z,92.80
2022-07-29T12:23:18.990Z,92.80
2022-07-29T12:26:11.128Z,92.80
2022-07-29T12:29:20.478Z,92.80
2022-07-29T12:32:22.963Z,92.80
2022-07-29T12:35:15.049Z,92.80
2022-07-29T12:38:05.488Z,92.80
2022-07-29T12:40:55.091Z,92.80
2022-07-29T12:43:55.056Z,92.80
2022-07-29T12:46:43.984Z,92.80
2022-07-29T12:49:38.155Z,92.80
2022-07-29T12:52:30.095Z,92.80
2022-07-29T12:55:43.446Z,92.80
2022-07-29T12:58:34.364Z,92.80
2022-07-29T13:01:24.116Z,92.80
2022-07-29T13:04:13.091Z,93.00
2022-07-29T13:07:04.806Z,92.80
2022-07-29T13:09:53.946Z,92.80
2022-07-29T13:13:04.019Z,92.80
2022-07-29T13:16:09.867Z,92.80
2022-07-29T13:19:09.426Z,92.80
2022-07-29T13:21:58.863Z,92.80
2022-07-29T13:24:51.746Z,92.80
2022-07-29T13:27:42.734Z,92.80
2022-07-29T13:30:31.160Z,92.80
2022-07-29T13:33:20.500Z,92.80
2022-07-29T13:36:09.175Z,92.80
2022-07-29T13:38:58.417Z,92.70
2022-07-29T13:41:46.559Z,92.70
2022-07-29T13:44:37.070Z,92.70
2022-07-29T13:47:31.909Z,92.70
2022-07-29T13:50:22.239Z,92.70
2022-07-29T13:53:11.033Z,92.70
2022-07-29T13:56:08.159Z,92.70
2022-07-29T13:58:56.269Z,92.70
2022-07-29T14:01:46.385Z,92.70
2022-07-29T14:04:35.717Z,92.70
2022-07-29T14:07:24.774Z,92.70
2022-07-29T14:10:15.179Z,92.70
2022-07-29T14:13:07.497Z,92.70
2022-07-29T14:16:13.997Z,93.00
2022-07-29T14:19:04.283Z,92.70
2022-07-29T14:21:52.354Z,92.70
2022-07-29T14:24:41.918Z,93.00
2022-07-29T14:27:37.387Z,92.70
2022-07-29T14:30:26.763Z,92.70
2022-07-29T14:33:16.260Z,92.70
2022-07-29T14:36:06.964Z,92.70
2022-07-29T14:38:55.769Z,92.70
2022-07-29T14:41:44.484Z,92.70
2022-07-29T14:44:33.140Z,92.70
2022-07-29T14:47:23.025Z,92.70
2022-07-29T14:50:11.837Z,92.70
2022-07-29T14:53:02.588Z,92.70
2022-07-29T14:55:50.797Z,92.70
2022-07-29T14:58:39.709Z,92.70
2022-07-29T15:01:39.951Z,92.70
2022-07-29T15:04:29.247Z,92.70
2022-07-29T15:07:17.909Z,92.70
2022-07-29T15:10:08.622Z,92.70
2022-07-29T15:12:56.942Z,92.70
2022-07-29T15:15:46.747Z,92.70
2022-07-29T15:18:35.890Z,92.70
2022-07-29T15:21:25.371Z,92.70
2022-07-29T15:24:13.792Z,92.70
2022-07-29T15:27:04.032Z,92.70
2022-07-29T15:29:52.302Z,92.70
2022-07-29T15:32:41.518Z,92.60
2022-07-29T15:35:29.523Z,92.60
2022-07-29T15:38:18.957Z,92.60
2022-07-29T15:41:07.029Z,92.60
2022-07-29T15:43:57.416Z,92.90
2022-07-29T15:47:03.032Z,92.60
2022-07-29T15:49:51.830Z,92.60
2022-07-29T15:52:40.126Z,92.60
2022-07-29T15:55:30.107Z,92.60
2022-07-29T15:58:18.983Z,92.60
2022-07-29T16:01:09.039Z,92.60
2022-07-29T16:03:56.856Z,92.60
2022-07-29T16:06:48.553Z,92.60
2022-07-29T16:09:36.733Z,92.50
2022-07-29T16:12:25.992Z,92.50
2022-07-29T16:15:13.926Z,92.50
2022-07-29T16:18:04.281Z,92.50
2022-07-29T16:20:52.401Z,92.50
2022-07-29T16:23:41.786Z,92.50
2022-07-29T16:26:29.951Z,92.50
2022-07-29T16:29:19.526Z,92.50
2022-07-29T16:32:08.490Z,92.50
2022-07-29T16:34:58.738Z,92.50
2022-07-29T16:37:47.243Z,92.50
2022-07-29T16:40:36.149Z,92.70
2022-07-29T16:43:24.454Z,92.50
2022-07-29T16:46:15.658Z,92.50
2022-07-29T16:49:07.436Z,92.50
2022-07-29T16:51:57.419Z,92.50
2022-07-29T16:54:47.147Z,92.50
2022-07-29T16:57:35.903Z,92.40
2022-07-29T17:00:24.344Z,92.40
2022-07-29T17:03:13.679Z,92.40
2022-07-29T17:06:01.854Z,92.40
2022-07-29T17:08:52.157Z,92.40
2022-07-29T17:11:52.883Z,92.40
2022-07-29T17:14:43.595Z,92.40
2022-07-29T17:17:38.962Z,92.40
2022-07-29T17:20:40.402Z,92.40
2022-07-29T17:23:29.456Z,92.40
2022-07-29T17:26:20.492Z,92.40
2022-07-29T17:29:08.664Z,92.40
2022-07-29T17:31:57.941Z,92.40
2022-07-29T17:34:46.313Z,92.40
2022-07-29T17:37:35.286Z,92.40
2022-07-29T17:40:23.930Z,92.40
2022-07-29T17:43:14.164Z,92.40
2022-07-29T17:46:02.297Z,92.30
2022-07-29T17:48:51.307Z,92.30
2022-07-29T17:51:39.969Z,92.30
2022-07-29T17:54:29.030Z,92.40
2022-07-29T17:57:17.112Z,92.40
2022-07-29T18:00:09.695Z,92.40
2022-07-29T18:02:57.801Z,92.40
2022-07-29T18:05:46.721Z,92.40
2022-07-29T18:08:36.154Z,92.40
2022-07-29T18:11:25.528Z,92.40
2022-07-29T18:14:13.833Z,92.40
2022-07-29T18:17:03.724Z,92.00
2022-07-29T18:19:52.886Z,92.00
2022-07-29T18:22:41.592Z,92.10
2022-07-29T18:25:30.020Z,92.10
2022-07-29T18:28:18.473Z,92.10
2022-07-29T18:31:06.894Z,92.10
2022-07-29T18:33:59.938Z,92.20
2022-07-29T18:36:48.682Z,92.20
2022-07-29T18:39:37.172Z,92.10
2022-07-29T18:42:25.692Z,92.10
2022-07-29T18:45:19.278Z,92.10
2022-07-29T18:48:12.698Z,92.10
2022-07-29T18:51:03.594Z,92.10
2022-07-29T18:53:57.769Z,92.20
2022-07-29T18:56:47.448Z,92.20
2022-07-29T18:59:35.724Z,92.20
2022-07-29T19:02:24.741Z,92.20
2022-07-29T19:05:12.725Z,92.20
2022-07-29T19:08:02.975Z,92.20
2022-07-29T19:10:51.082Z,92.20
2022-07-29T19:13:40.064Z,92.20
2022-07-29T19:16:28.745Z,92.30
2022-07-29T19:19:17.247Z,92.20
2022-07-29T19:22:05.847Z,92.30
2022-07-29T19:24:56.097Z,92.30
2022-07-29T19:27:44.532Z,92.30
2022-07-29T19:30:33.559Z,92.30
2022-07-29T19:33:21.538Z,92.30
2022-07-29T19:36:10.204Z,92.30
2022-07-29T19:39:00.129Z,92.30
2022-07-29T19:41:50.328Z,92.40
2022-07-29T19:44:45.838Z,92.40
2022-07-29T19:47:34.829Z,92.40
2022-07-29T19:50:23.250Z,92.40
2022-07-29T19:53:12.794Z,92.40
2022-07-29T19:56:01.312Z,92.40
2022-07-29T19:58:51.253Z,92.40
2022-07-29T20:01:40.267Z,92.40
2022-07-29T20:04:29.538Z,92.40
2022-07-29T20:07:17.667Z,92.50
2022-07-29T20:10:08.535Z,92.50
2022-07-29T20:12:56.634Z,92.50
2022-07-29T20:15:47.784Z,92.50
2022-07-29T20:18:36.491Z,92.50
2022-07-29T20:21:26.951Z,92.60
2022-07-29T20:24:15.826Z,92.60
2022-07-29T20:27:04.929Z,92.60
2022-07-29T20:30:02.749Z,92.60
2022-07-29T20:32:52.791Z,92.60
2022-07-29T20:35:41.270Z,92.60
2022-07-29T20:38:30.795Z,92.60
2022-07-29T20:41:18.963Z,92.60
2022-07-29T20:44:08.038Z,92.60
2022-07-29T20:46:57.160Z,92.60
2022-07-29T20:49:48.276Z,92.60
2022-07-29T20:52:36.626Z,92.60
2022-07-29T20:55:25.536Z,92.60
2022-07-29T20:58:14.408Z,92.70
2022-07-29T21:01:03.574Z,92.70
2022-07-29T21:03:52.444Z,92.70
2022-07-29T21:06:42.799Z,92.70
2022-07-29T21:09:31.049Z,92.70
2022-07-29T21:12:19.599Z,92.70
2022-07-29T21:15:08.887Z,92.70
2022-07-29T21:18:00.880Z,92.70
2022-07-29T21:20:49.337Z,92.70
2022-07-29T21:23:39.788Z,92.80
2022-07-29T21:26:28.315Z,92.80
2022-07-29T21:29:16.428Z,92.80
2022-07-29T21:32:04.398Z,92.80
2022-07-29T21:34:53.169Z,92.80
2022-07-29T21:37:41.442Z,92.80
2022-07-29T21:40:31.740Z,92.80
2022-07-29T21:43:20.739Z,92.80
2022-07-29T21:46:09.029Z,92.80
2022-07-29T21:48:57.643Z,93.00
2022-07-29T21:51:46.989Z,92.70
2022-07-29T21:54:35.413Z,92.80
2022-07-29T21:57:26.745Z,92.80
2022-07-29T22:00:16.158Z,92.80
2022-07-29T22:03:05.539Z,93.10
2022-07-29T22:05:53.722Z,92.80
2022-07-29T22:08:45.919Z,92.80
2022-07-29T22:11:36.380Z,92.80
2022-07-29T22:14:26.785Z,92.80
2022-07-29T22:17:15.531Z,92.80
2022-07-29T22:20:04.512Z,92.80
2022-07-29T22:22:52.929Z,92.80
2022-07-29T22:25:41.523Z,92.80
2022-07-29T22:28:29.692Z,92.80
2022-07-29T22:31:20.010Z,92.80
2022-07-29T22:34:12.771Z,92.80
2022-07-29T22:37:01.643Z,92.80
2022-07-29T22:39:50.358Z,92.80
2022-07-29T22:42:40.849Z,92.80
2022-07-29T22:45:29.521Z,92.90
2022-07-29T22:48:19.631Z,92.90
2022-07-29T22:51:08.081Z,92.80
2022-07-29T22:53:57.870Z,92.80
2022-07-29T22:56:46.641Z,92.80
2022-07-29T22:59:35.357Z,92.80
2022-07-29T23:02:23.379Z,92.80
2022-07-29T23:05:16.009Z,92.80
2022-07-29T23:08:04.584Z,92.90
2022-07-29T23:10:53.192Z,92.90
2022-07-29T23:13:41.251Z,92.90
2022-07-29T23:16:29.925Z,92.80
2022-07-29T23:19:17.885Z,92.80
2022-07-29T23:22:08.042Z,92.80
2022-07-29T23:24:56.410Z,92.80
2022-07-29T23:27:44.970Z,92.90
2022-07-29T23:30:33.499Z,92.90
2022-07-29T23:33:22.216Z,92.90
2022-07-29T23:36:10.639Z,92.90
2022-07-29T23:39:00.712Z,92.90
2022-07-29T23:41:48.898Z,92.90
2022-07-29T23:44:37.565Z,92.90
2022-07-29T23:47:25.580Z,92.90
2022-07-29T23:50:16.523Z,92.90
2022-07-29T23:53:04.644Z,92.90
2022-07-29T23:55:55.000Z,92.90
2022-07-29T23:58:43.301Z,92.90
